Time;durP1;ratioP1;P1;durP2;ratioP2;P2;SDS_P1;SDS_P2;PMS_P1;PMS_P2;Temp;Humidity;BMP_temperature;BMP_pressure;BME280_temperature;BME280_humidity;BME280_pressure;Samples;Min_cycle;Max_cycle;Signal;HPM_P1;HPM_P2
2022/06/04 00:00:52;;;;;;;;;;;19.30;59.70;;;;;;20887003;28;19917;-71
2022/06/04 00:21:12;;;;;;;;;;;19.30;59.80;;;;;;20909959;28;19921;-71
2022/06/04 00:31:13;;;;;;;;;;;19.30;59.80;;;;;;20881672;28;19931;-72
2022/06/04 00:41:24;;;;;;;;;;;19.30;59.80;;;;;;20884647;28;19917;-71
2022/06/04 00:51:24;;;;;;;;;;;19.30;59.90;;;;;;20869062;28;19963;-72
2022/06/04 01:01:29;;;;;;;;;;;19.30;59.90;;;;;;20910553;28;19921;-72
2022/06/04 01:11:32;;;;;;;;;;;19.30;59.90;;;;;;20914675;28;20003;-71
2022/06/04 01:21:52;;;;;;;;;;;19.20;59.90;;;;;;20915487;28;19917;-71
2022/06/04 01:31:57;;;;;;;;;;;19.20;59.90;;;;;;20912426;28;19967;-71
2022/06/04 01:41:58;;;;;;;;;;;19.20;59.90;;;;;;20887154;28;19925;-71
2022/06/04 01:52:00;;;;;;;;;;;19.20;59.90;;;;;;20894559;28;20351;-71
2022/06/04 02:02:01;;;;;;;;;;;19.20;60.60;;;;;;20910506;28;19916;-72
2022/06/04 02:12:02;;;;;;;;;;;19.20;60.00;;;;;;20886403;28;20668;-72
2022/06/04 02:22:02;;;;;;;;;;;19.20;60.00;;;;;;20878736;28;19956;-72
2022/06/04 02:32:03;;;;;;;;;;;19.20;60.00;;;;;;20890197;28;20012;-72
2022/06/04 02:42:12;;;;;;;;;;;19.20;60.00;;;;;;20908595;28;19971;-72
2022/06/04 02:52:13;;;;;;;;;;;19.10;60.00;;;;;;20906156;28;19974;-72
2022/06/04 03:02:14;;;;;;;;;;;19.10;60.00;;;;;;20886967;28;20260;-72
2022/06/04 03:12:15;;;;;;;;;;;19.10;60.00;;;;;;20875208;28;19916;-73
2022/06/04 03:22:17;;;;;;;;;;;19.10;60.00;;;;;;20876405;28;19921;-74
2022/06/04 03:32:17;;;;;;;;;;;19.10;60.00;;;;;;20903474;28;19929;-75
2022/06/04 03:42:18;;;;;;;;;;;19.10;60.00;;;;;;20903823;28;19931;-74
2022/06/04 03:52:18;;;;;;;;;;;19.10;60.00;;;;;;20858160;28;19921;-74
2022/06/04 04:02:19;;;;;;;;;;;19.10;60.00;;;;;;20885935;28;19920;-75
2022/06/04 04:12:20;;;;;;;;;;;19.10;60.00;;;;;;20857214;28;19975;-74
2022/06/04 04:22:20;;;;;;;;;;;19.10;60.00;;;;;;20874134;28;20515;-74
2022/06/04 04:32:21;;;;;;;;;;;19.10;60.00;;;;;;20914236;28;20359;-74
2022/06/04 04:42:22;;;;;;;;;;;19.10;60.00;;;;;;20917432;28;19920;-74
2022/06/04 04:52:23;;;;;;;;;;;19.10;59.90;;;;;;20916547;28;19917;-74
2022/06/04 05:02:23;;;;;;;;;;;19.10;59.90;;;;;;20910841;28;20396;-74
2022/06/04 05:12:24;;;;;;;;;;;19.10;59.90;;;;;;20896823;28;19916;-74
2022/06/04 05:22:25;;;;;;;;;;;19.10;59.90;;;;;;20897196;28;19964;-74
2022/06/04 05:32:26;;;;;;;;;;;19.10;60.00;;;;;;20888732;28;19927;-74
2022/06/04 05:42:26;;;;;;;;;;;19.10;59.90;;;;;;20895014;28;20007;-73
2022/06/04 05:52:27;;;;;;;;;;;19.10;59.90;;;;;;20886309;28;19955;-74
2022/06/04 06:02:27;;;;;;;;;;;19.10;59.80;;;;;;20910378;28;19916;-75
2022/06/04 06:12:28;;;;;;;;;;;19.10;59.80;;;;;;20893701;28;19925;-75
2022/06/04 06:22:29;;;;;;;;;;;19.20;59.80;;;;;;20893256;28;19927;-74
2022/06/04 06:32:29;;;;;;;;;;;19.20;59.70;;;;;;20882475;28;19920;-74
2022/06/04 06:42:30;;;;;;;;;;;19.20;59.60;;;;;;20914591;28;19917;-74
2022/06/04 06:52:38;;;;;;;;;;;19.20;59.60;;;;;;20890221;28;19925;-77
2022/06/04 07:02:38;;;;;;;;;;;19.20;59.50;;;;;;20888823;28;19927;-78
2022/06/04 07:12:39;;;;;;;;;;;19.10;56.90;;;;;;20890530;28;19920;-77
2022/06/04 07:22:40;;;;;;;;;;;19.10;55.00;;;;;;21235790;23;20350;-84
2022/06/04 07:32:41;;;;;;;;;;;19.10;55.00;;;;;;20804911;28;19916;-82
2022/06/04 07:42:45;;;;;;;;;;;19.10;55.20;;;;;;20819953;28;22692;-74
2022/06/04 07:52:46;;;;;;;;;;;19.20;55.60;;;;;;20843934;28;19996;-75
2022/06/04 08:02:47;;;;;;;;;;;19.20;56.00;;;;;;20816104;28;20008;-78
2022/06/04 08:12:48;;;;;;;;;;;19.30;56.20;;;;;;20833540;28;19921;-79
2022/06/04 08:22:49;;;;;;;;;;;19.30;54.90;;;;;;20847623;28;20351;-82
2022/06/04 08:32:50;;;;;;;;;;;19.40;54.80;;;;;;20826229;28;19952;-75
2022/06/04 08:43:11;;;;;;;;;;;19.40;55.20;;;;;;20824982;28;19975;-81
2022/06/04 08:53:25;;;;;;;;;;;19.50;54.70;;;;;;20805022;28;19913;-80
2022/06/04 09:03:30;;;;;;;;;;;19.50;54.10;;;;;;20839719;28;19967;-79
2022/06/04 09:13:35;;;;;;;;;;;19.60;53.80;;;;;;20843019;28;19919;-80
2022/06/04 09:23:36;;;;;;;;;;;19.70;53.60;;;;;;20843366;28;19966;-79
2022/06/04 09:33:53;;;;;;;;;;;19.80;53.10;;;;;;20866384;28;20361;-74
2022/06/04 09:44:01;;;;;;;;;;;19.80;53.30;;;;;;20846671;28;19931;-73
2022/06/04 09:54:02;;;;;;;;;;;19.80;53.70;;;;;;20854605;28;19913;-74
2022/06/04 10:04:10;;;;;;;;;;;19.90;53.70;;;;;;20859020;28;19925;-74
2022/06/04 10:14:11;;;;;;;;;;;19.90;53.70;;;;;;20822044;28;19913;-81
2022/06/04 10:24:22;;;;;;;;;;;19.80;53.90;;;;;;20846999;28;19921;-78
2022/06/04 10:34:58;;;;;;;;;;;19.90;54.00;;;;;;20783810;28;19967;-78
2022/06/04 10:45:10;;;;;;;;;;;20.10;54.30;;;;;;20774959;28;19963;-78
2022/06/04 10:55:22;;;;;;;;;;;20.10;54.40;;;;;;20812458;28;19920;-73
2022/06/04 11:05:30;;;;;;;;;;;20.10;54.70;;;;;;20831934;28;19925;-77
2022/06/04 11:15:34;;;;;;;;;;;20.10;55.00;;;;;;20835785;28;20367;-72
2022/06/04 11:25:35;;;;;;;;;;;20.00;55.30;;;;;;20836575;28;19928;-77
2022/06/04 11:35:39;;;;;;;;;;;20.00;55.60;;;;;;20842483;28;20426;-74
2022/06/04 11:45:44;;;;;;;;;;;20.00;55.80;;;;;;20827393;28;19928;-72
2022/06/04 11:55:46;;;;;;;;;;;20.10;56.10;;;;;;20861896;28;19912;-72
2022/06/04 12:05:50;;;;;;;;;;;20.00;56.20;;;;;;20865643;28;19921;-74
2022/06/04 12:15:53;;;;;;;;;;;20.00;56.40;;;;;;20813559;28;20326;-71
2022/06/04 12:25:59;;;;;;;;;;;20.10;56.60;;;;;;20849113;28;19925;-73
2022/06/04 12:36:04;;;;;;;;;;;20.20;56.50;;;;;;20839725;28;19920;-73
2022/06/04 12:46:06;;;;;;;;;;;20.20;56.40;;;;;;20853204;28;20415;-75
2022/06/04 12:56:07;;;;;;;;;;;20.30;56.40;;;;;;20854285;28;20003;-75
2022/06/04 13:06:29;;;;;;;;;;;20.40;56.60;;;;;;20829632;28;19979;-78
2022/06/04 13:16:30;;;;;;;;;;;20.40;56.70;;;;;;20854480;28;19948;-79
2022/06/04 13:26:36;;;;;;;;;;;20.40;56.80;;;;;;20865324;28;19952;-76
2022/06/04 13:36:37;;;;;;;;;;;20.50;56.90;;;;;;20875324;28;19916;-75
2022/06/04 13:46:38;;;;;;;;;;;20.60;56.90;;;;;;20871505;28;19929;-73
2022/06/04 13:56:39;;;;;;;;;;;20.70;56.90;;;;;;20869573;28;19924;-72
2022/06/04 14:06:39;;;;;;;;;;;20.80;56.60;;;;;;20835116;28;19925;-72
2022/06/04 14:16:44;;;;;;;;;;;20.90;56.30;;;;;;20870134;28;19967;-72
2022/06/04 14:27:06;;;;;;;;;;;20.90;55.80;;;;;;20843791;28;19921;-71
2022/06/04 14:37:07;;;;;;;;;;;21.00;55.60;;;;;;20826336;28;19935;-72
2022/06/04 14:47:07;;;;;;;;;;;21.00;55.40;;;;;;20791037;28;19964;-71
2022/06/04 14:57:23;;;;;;;;;;;21.10;55.00;;;;;;20810101;28;19971;-74
2022/06/04 15:07:32;;;;;;;;;;;21.10;54.90;;;;;;20820472;28;19960;-73
2022/06/04 15:17:41;;;;;;;;;;;21.30;54.70;;;;;;20819365;28;19917;-74
2022/06/04 15:27:53;;;;;;;;;;;21.40;54.20;;;;;;20813653;28;19983;-71
2022/06/04 15:38:12;;;;;;;;;;;21.60;54.50;;;;;;20851785;28;19921;-72
2022/06/04 15:48:13;;;;;;;;;;;21.70;54.80;;;;;;20813717;28;19933;-72
2022/06/04 15:58:19;;;;;;;;;;;21.80;54.60;;;;;;20816940;28;19921;-78
2022/06/04 16:08:19;;;;;;;;;;;21.90;54.50;;;;;;20858379;28;19921;-79
2022/06/04 16:18:25;;;;;;;;;;;22.00;54.30;;;;;;20824874;28;19920;-81
2022/06/04 16:28:44;;;;;;;;;;;22.00;53.90;;;;;;20792795;28;19921;-79
2022/06/04 16:38:46;;;;;;;;;;;22.10;53.70;;;;;;20839860;28;20458;-79
2022/06/04 16:48:46;;;;;;;;;;;22.10;53.80;;;;;;20866033;28;19943;-78
2022/06/04 16:58:47;;;;;;;;;;;22.20;53.80;;;;;;20866341;28;20298;-78
2022/06/04 17:08:47;;;;;;;;;;;22.20;53.90;;;;;;20835337;28;19921;-74
2022/06/04 17:18:59;;;;;;;;;;;22.20;53.90;;;;;;20873713;28;20414;-80
2022/06/04 17:29:02;;;;;;;;;;;22.30;54.10;;;;;;20859882;28;20019;-75
2022/06/04 17:39:07;;;;;;;;;;;22.30;54.10;;;;;;20858788;28;19913;-78
2022/06/04 17:49:08;;;;;;;;;;;22.20;54.10;;;;;;20838239;28;20288;-77
2022/06/04 17:59:08;;;;;;;;;;;22.20;54.10;;;;;;20855365;28;19933;-76
2022/06/04 18:09:09;;;;;;;;;;;22.20;54.10;;;;;;20847430;28;19978;-76
2022/06/04 18:19:09;;;;;;;;;;;22.20;54.20;;;;;;20848672;28;19913;-76
2022/06/04 18:29:10;;;;;;;;;;;22.10;54.20;;;;;;20808294;28;20330;-76
2022/06/04 18:39:11;;;;;;;;;;;21.90;54.40;;;;;;20802456;28;19956;-76
2022/06/04 18:59:31;;;;;;;;;;;21.70;54.80;;;;;;20822355;28;19924;-77
2022/06/04 19:09:31;;;;;;;;;;;21.60;54.90;;;;;;20813015;28;20013;-77
2022/06/04 19:19:32;;;;;;;;;;;21.60;55.70;;;;;;20811619;28;19952;-76
2022/06/04 19:29:32;;;;;;;;;;;21.60;55.20;;;;;;20802355;28;19929;-77
2022/06/04 19:39:33;;;;;;;;;;;21.50;55.20;;;;;;20820642;28;19949;-79
2022/06/04 19:49:35;;;;;;;;;;;21.60;55.30;;;;;;20795496;28;20300;-79
2022/06/04 19:59:36;;;;;;;;;;;21.50;55.30;;;;;;20792001;28;19913;-77
2022/06/04 20:09:36;;;;;;;;;;;21.40;55.40;;;;;;20818459;28;19968;-77
2022/06/04 20:19:37;;;;;;;;;;;21.40;55.50;;;;;;20843417;28;19913;-78
2022/06/04 20:29:37;;;;;;;;;;;21.30;55.60;;;;;;20832586;28;19951;-77
2022/06/04 20:39:38;;;;;;;;;;;21.20;55.70;;;;;;20826561;28;19917;-75
2022/06/04 20:49:39;;;;;;;;;;;21.40;55.90;;;;;;20827070;28;20432;-77
2022/06/04 20:59:40;;;;;;;;;;;21.30;56.00;;;;;;20839741;28;19913;-76
2022/06/04 21:09:41;;;;;;;;;;;21.20;56.00;;;;;;20855924;28;19921;-76
2022/06/04 21:19:41;;;;;;;;;;;21.10;56.20;;;;;;20837691;28;19935;-76
2022/06/04 21:29:42;;;;;;;;;;;21.20;56.30;;;;;;20853584;28;20008;-76
2022/06/04 21:39:42;;;;;;;;;;;21.20;56.40;;;;;;20857783;28;20371;-76
2022/06/04 21:49:43;;;;;;;;;;;21.10;56.50;;;;;;20854796;28;19936;-75
2022/06/04 21:59:43;;;;;;;;;;;21.10;56.60;;;;;;20829766;28;19977;-76
2022/06/04 22:09:44;;;;;;;;;;;21.00;56.60;;;;;;20831110;28;20020;-76
2022/06/04 22:19:45;;;;;;;;;;;21.10;56.70;;;;;;20852622;28;20317;-76
2022/06/04 22:29:46;;;;;;;;;;;21.00;56.80;;;;;;20848177;28;19922;-76
2022/06/04 22:39:46;;;;;;;;;;;20.90;56.80;;;;;;20837637;28;20387;-76
2022/06/04 22:49:47;;;;;;;;;;;21.00;57.00;;;;;;20818124;28;20350;-75
2022/06/04 22:59:48;;;;;;;;;;;21.00;57.00;;;;;;20867333;28;19913;-76
2022/06/04 23:20:55;;;;;;;;;;;21.10;57.10;;;;;;20851669;28;20383;-75
2022/06/04 23:30:37;;;;;;;;;;;21.00;57.20;;;;;;20813237;28;19921;-76
2022/06/04 23:40:37;;;;;;;;;;;20.90;57.20;;;;;;20844272;28;19921;-76
2022/06/04 23:50:41;;;;;;;;;;;20.90;57.30;;;;;;20843466;28;20002;-76
